sensor_id;sensor_type;location;lat;lon;timestamp;P1;durP1;ratioP1;P2;durP2;ratioP2
20880;SDS011;10600;53.096;8.802;2023-02-28T00:00:04;13.70;;;7.45;;
20880;SDS011;10600;53.096;8.802;2023-02-28T00:01:12;17.00;;;7.30;;
20880;SDS011;10600;53.096;8.802;2023-02-28T00:02:13;13.10;;;8.32;;
20880;SDS011;10600;53.096;8.802;2023-02-28T00:03:14;16.52;;;8.70;;
20880;SDS011;10600;53.096;8.802;2023-02-28T00:04:14;11.13;;;7.00;;
20880;SDS011;10600;53.096;8.802;2023-02-28T00:05:16;14.85;;;8.02;;
20880;SDS011;10600;53.096;8.802;2023-02-28T00:06:19;17.17;;;8.15;;
20880;SDS011;10600;53.096;8.802;2023-02-28T00:07:20;12.05;;;7.88;;
20880;SDS011;10600;53.096;8.802;2023-02-28T00:08:21;15.45;;;7.78;;
20880;SDS011;10600;53.096;8.802;2023-02-28T00:09:22;11.90;;;7.25;;
20880;SDS011;10600;53.096;8.802;2023-02-28T00:10:24;13.93;;;6.95;;
20880;SDS011;10600;53.096;8.802;2023-02-28T00:11:27;15.90;;;7.95;;
20880;SDS011;10600;53.096;8.802;2023-02-28T00:12:28;16.83;;;8.02;;
20880;SDS011;10600;53.096;8.802;2023-02-28T00:13:28;14.68;;;8.38;;
20880;SDS011;10600;53.096;8.802;2023-02-28T00:14:29;14.65;;;7.85;;
20880;SDS011;10600;53.096;8.802;2023-02-28T00:15:30;14.10;;;8.07;;
20880;SDS011;10600;53.096;8.802;2023-02-28T00:16:32;14.30;;;8.07;;
20880;SDS011;10600;53.096;8.802;2023-02-28T00:17:32;12.77;;;8.23;;
20880;SDS011;10600;53.096;8.802;2023-02-28T00:18:33;15.02;;;9.02;;
20880;SDS011;10600;53.096;8.802;2023-02-28T00:19:34;13.55;;;8.52;;
20880;SDS011;10600;53.096;8.802;2023-02-28T00:20:34;18.33;;;9.75;;
20880;SDS011;10600;53.096;8.802;2023-02-28T00:21:35;16.50;;;9.50;;
20880;SDS011;10600;53.096;8.802;2023-02-28T00:22:36;15.23;;;8.88;;
20880;SDS011;10600;53.096;8.802;2023-02-28T00:23:38;16.33;;;9.75;;
20880;SDS011;10600;53.096;8.802;2023-02-28T00:24:39;17.20;;;10.30;;
20880;SDS011;10600;53.096;8.802;2023-02-28T00:25:39;18.25;;;9.13;;
20880;SDS011;10600;53.096;8.802;2023-02-28T00:26:40;16.30;;;10.00;;
20880;SDS011;10600;53.096;8.802;2023-02-28T00:27:41;17.83;;;10.00;;
20880;SDS011;10600;53.096;8.802;2023-02-28T00:28:42;17.02;;;9.50;;
20880;SDS011;10600;53.096;8.802;2023-02-28T00:29:42;15.48;;;9.57;;
20880;SDS011;10600;53.096;8.802;2023-02-28T00:30:43;18.20;;;10.35;;
20880;SDS011;10600;53.096;8.802;2023-02-28T00:31:44;17.85;;;10.45;;
20880;SDS011;10600;53.096;8.802;2023-02-28T00:32:44;20.27;;;10.27;;
20880;SDS011;10600;53.096;8.802;2023-02-28T00:33:45;19.10;;;10.20;;
20880;SDS011;10600;53.096;8.802;2023-02-28T00:34:46;17.33;;;9.88;;
20880;SDS011;10600;53.096;8.802;2023-02-28T00:35:46;18.23;;;10.25;;
20880;SDS011;10600;53.096;8.802;2023-02-28T00:36:48;17.02;;;9.60;;
20880;SDS011;10600;53.096;8.802;2023-02-28T00:37:49;15.98;;;9.55;;
20880;SDS011;10600;53.096;8.802;2023-02-28T00:38:49;17.63;;;9.95;;
20880;SDS011;10600;53.096;8.802;2023-02-28T00:39:50;20.17;;;9.68;;
20880;SDS011;10600;53.096;8.802;2023-02-28T00:40:51;21.08;;;9.82;;
20880;SDS011;10600;53.096;8.802;2023-02-28T00:41:51;15.00;;;9.93;;
20880;SDS011;10600;53.096;8.802;2023-02-28T00:42:52;16.00;;;9.43;;
20880;SDS011;10600;53.096;8.802;2023-02-28T00:43:53;16.33;;;9.68;;
20880;SDS011;10600;53.096;8.802;2023-02-28T00:44:53;15.82;;;9.20;;
20880;SDS011;10600;53.096;8.802;2023-02-28T00:45:54;19.13;;;8.85;;
20880;SDS011;10600;53.096;8.802;2023-02-28T00:46:54;15.60;;;9.15;;
20880;SDS011;10600;53.096;8.802;2023-02-28T00:47:56;19.58;;;9.70;;
20880;SDS011;10600;53.096;8.802;2023-02-28T00:48:57;12.32;;;8.25;;
20880;SDS011;10600;53.096;8.802;2023-02-28T00:49:57;16.67;;;8.70;;
20880;SDS011;10600;53.096;8.802;2023-02-28T00:50:58;18.77;;;8.70;;
20880;SDS011;10600;53.096;8.802;2023-02-28T00:51:59;12.55;;;8.13;;
20880;SDS011;10600;53.096;8.802;2023-02-28T00:53:00;13.32;;;8.20;;
20880;SDS011;10600;53.096;8.802;2023-02-28T00:54:00;12.30;;;8.18;;
20880;SDS011;10600;53.096;8.802;2023-02-28T00:55:01;13.35;;;8.18;;
20880;SDS011;10600;53.096;8.802;2023-02-28T00:56:02;14.60;;;6.93;;
20880;SDS011;10600;53.096;8.802;2023-02-28T00:57:03;18.35;;;7.53;;
20880;SDS011;10600;53.096;8.802;2023-02-28T00:58:04;12.52;;;6.32;;
20880;SDS011;10600;53.096;8.802;2023-02-28T00:59:04;13.65;;;6.03;;
20880;SDS011;10600;53.096;8.802;2023-02-28T01:00:05;12.60;;;6.60;;
20880;SDS011;10600;53.096;8.802;2023-02-28T01:01:07;11.77;;;5.70;;
20880;SDS011;10600;53.096;8.802;2023-02-28T01:02:08;10.15;;;5.75;;
20880;SDS011;10600;53.096;8.802;2023-02-28T01:03:08;12.05;;;6.15;;
20880;SDS011;10600;53.096;8.802;2023-02-28T01:04:09;10.15;;;5.97;;
20880;SDS011;10600;53.096;8.802;2023-02-28T01:05:10;7.70;;;5.07;;
20880;SDS011;10600;53.096;8.802;2023-02-28T01:06:10;12.13;;;4.90;;
20880;SDS011;10600;53.096;8.802;2023-02-28T01:07:11;10.65;;;5.88;;
20880;SDS011;10600;53.096;8.802;2023-02-28T01:08:12;16.77;;;5.70;;
20880;SDS011;10600;53.096;8.802;2023-02-28T01:09:13;10.57;;;5.50;;
20880;SDS011;10600;53.096;8.802;2023-02-28T01:10:14;11.43;;;5.55;;
20880;SDS011;10600;53.096;8.802;2023-02-28T01:11:18;11.52;;;5.43;;
20880;SDS011;10600;53.096;8.802;2023-02-28T01:12:19;12.25;;;5.65;;
20880;SDS011;10600;53.096;8.802;2023-02-28T01:13:20;9.73;;;5.47;;
20880;SDS011;10600;53.096;8.802;2023-02-28T01:14:20;11.07;;;6.50;;
20880;SDS011;10600;53.096;8.802;2023-02-28T01:15:21;13.95;;;6.35;;
20880;SDS011;10600;53.096;8.802;2023-02-28T01:16:21;12.10;;;6.45;;
20880;SDS011;10600;53.096;8.802;2023-02-28T01:17:22;9.32;;;5.90;;
20880;SDS011;10600;53.096;8.802;2023-02-28T01:18:23;14.52;;;6.93;;
20880;SDS011;10600;53.096;8.802;2023-02-28T01:19:24;10.32;;;6.40;;
20880;SDS011;10600;53.096;8.802;2023-02-28T01:20:25;9.57;;;6.00;;
20880;SDS011;10600;53.096;8.802;2023-02-28T01:21:26;13.85;;;7.18;;
20880;SDS011;10600;53.096;8.802;2023-02-28T01:22:26;16.23;;;7.85;;
20880;SDS011;10600;53.096;8.802;2023-02-28T01:23:27;14.98;;;8.05;;
20880;SDS011;10600;53.096;8.802;2023-02-28T01:24:28;13.45;;;7.30;;
20880;SDS011;10600;53.096;8.802;2023-02-28T01:25:29;16.42;;;8.18;;
20880;SDS011;10600;53.096;8.802;2023-02-28T01:26:30;12.48;;;7.22;;
20880;SDS011;10600;53.096;8.802;2023-02-28T01:27:31;21.95;;;7.18;;
20880;SDS011;10600;53.096;8.802;2023-02-28T01:28:31;11.05;;;5.75;;
20880;SDS011;10600;53.096;8.802;2023-02-28T01:29:32;9.73;;;5.93;;
20880;SDS011;10600;53.096;8.802;2023-02-28T01:30:33;9.70;;;5.68;;
20880;SDS011;10600;53.096;8.802;2023-02-28T01:31:34;10.60;;;5.30;;
20880;SDS011;10600;53.096;8.802;2023-02-28T01:32:35;9.60;;;4.90;;
20880;SDS011;10600;53.096;8.802;2023-02-28T01:33:36;11.30;;;4.85;;
20880;SDS011;10600;53.096;8.802;2023-02-28T01:34:37;9.15;;;5.35;;
20880;SDS011;10600;53.096;8.802;2023-02-28T01:35:38;11.80;;;5.50;;
20880;SDS011;10600;53.096;8.802;2023-02-28T01:36:38;8.65;;;5.20;;
20880;SDS011;10600;53.096;8.802;2023-02-28T01:37:39;10.40;;;4.43;;
20880;SDS011;10600;53.096;8.802;2023-02-28T01:38:40;9.95;;;4.50;;
20880;SDS011;10600;53.096;8.802;2023-02-28T01:39:40;10.63;;;4.85;;
20880;SDS011;10600;53.096;8.802;2023-02-28T01:40:41;8.80;;;5.25;;
20880;SDS011;10600;53.096;8.802;2023-02-28T01:41:41;7.05;;;4.88;;
20880;SDS011;10600;53.096;8.802;2023-02-28T01:42:43;11.13;;;4.90;;
20880;SDS011;10600;53.096;8.802;2023-02-28T01:45:15;8.40;;;5.00;;
20880;SDS011;10600;53.096;8.802;2023-02-28T01:46:23;13.90;;;4.50;;
20880;SDS011;10600;53.096;8.802;2023-02-28T01:47:29;11.10;;;4.65;;
20880;SDS011;10600;53.096;8.802;2023-02-28T01:48:35;9.60;;;4.68;;
20880;SDS011;10600;53.096;8.802;2023-02-28T01:49:40;9.20;;;4.95;;
20880;SDS011;10600;53.096;8.802;2023-02-28T01:50:42;11.07;;;5.13;;
20880;SDS011;10600;53.096;8.802;2023-02-28T01:51:46;12.85;;;5.05;;
20880;SDS011;10600;53.096;8.802;2023-02-28T01:52:55;8.68;;;4.97;;
20880;SDS011;10600;53.096;8.802;2023-02-28T01:54:00;11.70;;;4.75;;
20880;SDS011;10600;53.096;8.802;2023-02-28T01:55:13;9.93;;;4.88;;
20880;SDS011;10600;53.096;8.802;2023-02-28T01:56:17;10.40;;;5.10;;
20880;SDS011;10600;53.096;8.802;2023-02-28T01:57:24;11.07;;;5.00;;
20880;SDS011;10600;53.096;8.802;2023-02-28T01:58:29;7.75;;;4.47;;
20880;SDS011;10600;53.096;8.802;2023-02-28T01:59:41;7.32;;;4.22;;
20880;SDS011;10600;53.096;8.802;2023-02-28T02:00:48;8.10;;;4.55;;
20880;SDS011;10600;53.096;8.802;2023-02-28T02:01:50;10.80;;;5.03;;
20880;SDS011;10600;53.096;8.802;2023-02-28T02:02:51;12.10;;;5.00;;
20880;SDS011;10600;53.096;8.802;2023-02-28T02:03:59;9.65;;;5.00;;
20880;SDS011;10600;53.096;8.802;2023-02-28T02:05:06;10.40;;;5.43;;
20880;SDS011;10600;53.096;8.802;2023-02-28T02:06:14;8.07;;;5.00;;
20880;SDS011;10600;53.096;8.802;2023-02-28T02:07:15;8.30;;;5.35;;
20880;SDS011;10600;53.096;8.802;2023-02-28T02:08:17;12.35;;;5.70;;
20880;SDS011;10600;53.096;8.802;2023-02-28T02:09:21;13.13;;;4.93;;
20880;SDS011;10600;53.096;8.802;2023-02-28T02:10:29;9.35;;;4.88;;
20880;SDS011;10600;53.096;8.802;2023-02-28T02:11:33;8.63;;;5.32;;
20880;SDS011;10600;53.096;8.802;2023-02-28T02:14:01;12.30;;;6.10;;
20880;SDS011;10600;53.096;8.802;2023-02-28T02:15:19;9.90;;;5.35;;
20880;SDS011;10600;53.096;8.802;2023-02-28T02:17:44;10.38;;;5.70;;
20880;SDS011;10600;53.096;8.802;2023-02-28T02:21:28;12.90;;;5.60;;
20880;SDS011;10600;53.096;8.802;2023-02-28T02:23:06;11.73;;;5.07;;
20880;SDS011;10600;53.096;8.802;2023-02-28T02:25:50;12.60;;;5.63;;
20880;SDS011;10600;53.096;8.802;2023-02-28T02:37:54;10.95;;;5.30;;
20880;SDS011;10600;53.096;8.802;2023-02-28T02:39:04;11.65;;;5.47;;
20880;SDS011;10600;53.096;8.802;2023-02-28T02:40:19;7.97;;;5.35;;
20880;SDS011;10600;53.096;8.802;2023-02-28T02:42:45;9.25;;;4.80;;
20880;SDS011;10600;53.096;8.802;2023-02-28T02:43:52;11.95;;;5.43;;
20880;SDS011;10600;53.096;8.802;2023-02-28T02:45:40;10.38;;;5.05;;
20880;SDS011;10600;53.096;8.802;2023-02-28T02:46:20;9.88;;;5.28;;
20880;SDS011;10600;53.096;8.802;2023-02-28T02:47:25;7.57;;;5.93;;
20880;SDS011;10600;53.096;8.802;2023-02-28T02:48:30;9.93;;;5.63;;
20880;SDS011;10600;53.096;8.802;2023-02-28T02:49:35;11.77;;;6.13;;
20880;SDS011;10600;53.096;8.802;2023-02-28T02:50:44;11.40;;;5.53;;
20880;SDS011;10600;53.096;8.802;2023-02-28T02:51:49;8.88;;;5.68;;
20880;SDS011;10600;53.096;8.802;2023-02-28T02:52:54;10.45;;;5.63;;
20880;SDS011;10600;53.096;8.802;2023-02-28T02:54:19;11.30;;;5.10;;
20880;SDS011;10600;53.096;8.802;2023-02-28T02:55:20;9.63;;;5.53;;
20880;SDS011;10600;53.096;8.802;2023-02-28T02:56:24;13.00;;;5.55;;
20880;SDS011;10600;53.096;8.802;2023-02-28T02:57:44;12.18;;;5.57;;
20880;SDS011;10600;53.096;8.802;2023-02-28T02:58:51;12.52;;;6.40;;
20880;SDS011;10600;53.096;8.802;2023-02-28T02:59:59;8.85;;;5.03;;
20880;SDS011;10600;53.096;8.802;2023-02-28T03:01:03;10.90;;;6.00;;
20880;SDS011;10600;53.096;8.802;2023-02-28T03:02:06;10.73;;;5.85;;
20880;SDS011;10600;53.096;8.802;2023-02-28T03:03:10;9.30;;;5.78;;
20880;SDS011;10600;53.096;8.802;2023-02-28T03:04:13;12.80;;;6.35;;
20880;SDS011;10600;53.096;8.802;2023-02-28T03:05:26;11.23;;;6.15;;
20880;SDS011;10600;53.096;8.802;2023-02-28T03:06:30;9.45;;;5.95;;
20880;SDS011;10600;53.096;8.802;2023-02-28T03:07:31;7.55;;;5.30;;
20880;SDS011;10600;53.096;8.802;2023-02-28T03:08:36;11.60;;;5.82;;
20880;SDS011;10600;53.096;8.802;2023-02-28T03:09:38;11.45;;;5.53;;
20880;SDS011;10600;53.096;8.802;2023-02-28T03:10:40;8.52;;;5.97;;
20880;SDS011;10600;53.096;8.802;2023-02-28T03:11:42;13.90;;;5.82;;
20880;SDS011;10600;53.096;8.802;2023-02-28T03:12:46;14.32;;;6.63;;
20880;SDS011;10600;53.096;8.802;2023-02-28T03:15:19;9.38;;;5.82;;
20880;SDS011;10600;53.096;8.802;2023-02-28T03:17:54;12.00;;;5.82;;
20880;SDS011;10600;53.096;8.802;2023-02-28T03:24:18;9.52;;;6.15;;
20880;SDS011;10600;53.096;8.802;2023-02-28T03:26:58;9.95;;;6.43;;
20880;SDS011;10600;53.096;8.802;2023-02-28T03:29:35;10.95;;;6.43;;
20880;SDS011;10600;53.096;8.802;2023-02-28T03:33:21;14.48;;;7.18;;
20880;SDS011;10600;53.096;8.802;2023-02-28T03:34:34;11.52;;;6.78;;
20880;SDS011;10600;53.096;8.802;2023-02-28T03:35:41;12.15;;;7.80;;
20880;SDS011;10600;53.096;8.802;2023-02-28T03:36:47;12.40;;;6.70;;
20880;SDS011;10600;53.096;8.802;2023-02-28T03:37:55;14.82;;;7.38;;
20880;SDS011;10600;53.096;8.802;2023-02-28T03:39:07;13.25;;;7.55;;
20880;SDS011;10600;53.096;8.802;2023-02-28T03:40:13;15.45;;;7.05;;
20880;SDS011;10600;53.096;8.802;2023-02-28T03:42:23;15.07;;;7.82;;
20880;SDS011;10600;53.096;8.802;2023-02-28T03:43:28;16.10;;;7.43;;
20880;SDS011;10600;53.096;8.802;2023-02-28T03:44:35;10.50;;;7.13;;
20880;SDS011;10600;53.096;8.802;2023-02-28T03:45:46;8.93;;;6.55;;
20880;SDS011;10600;53.096;8.802;2023-02-28T03:46:52;13.13;;;6.78;;
20880;SDS011;10600;53.096;8.802;2023-02-28T03:48:01;12.55;;;6.90;;
20880;SDS011;10600;53.096;8.802;2023-02-28T03:49:11;10.63;;;6.95;;
20880;SDS011;10600;53.096;8.802;2023-02-28T03:50:19;10.48;;;5.72;;
20880;SDS011;10600;53.096;8.802;2023-02-28T03:51:24;8.40;;;6.03;;
20880;SDS011;10600;53.096;8.802;2023-02-28T03:52:28;11.25;;;6.28;;
20880;SDS011;10600;53.096;8.802;2023-02-28T03:53:41;8.30;;;5.65;;
20880;SDS011;10600;53.096;8.802;2023-02-28T03:54:50;18.67;;;6.88;;
20880;SDS011;10600;53.096;8.802;2023-02-28T03:55:59;10.93;;;6.72;;
20880;SDS011;10600;53.096;8.802;2023-02-28T03:57:12;9.02;;;6.72;;
20880;SDS011;10600;53.096;8.802;2023-02-28T03:58:22;12.82;;;6.47;;
20880;SDS011;10600;53.096;8.802;2023-02-28T03:59:32;10.57;;;6.22;;
20880;SDS011;10600;53.096;8.802;2023-02-28T04:00:40;9.70;;;6.47;;
20880;SDS011;10600;53.096;8.802;2023-02-28T04:01:47;14.73;;;6.40;;
20880;SDS011;10600;53.096;8.802;2023-02-28T04:02:48;13.32;;;6.20;;
20880;SDS011;10600;53.096;8.802;2023-02-28T04:03:52;10.70;;;6.63;;
20880;SDS011;10600;53.096;8.802;2023-02-28T04:04:53;9.20;;;5.97;;
20880;SDS011;10600;53.096;8.802;2023-02-28T04:05:54;8.57;;;5.43;;
20880;SDS011;10600;53.096;8.802;2023-02-28T04:07:03;12.10;;;6.72;;
20880;SDS011;10600;53.096;8.802;2023-02-28T04:08:06;13.02;;;6.82;;
20880;SDS011;10600;53.096;8.802;2023-02-28T04:09:09;9.07;;;6.38;;
20880;SDS011;10600;53.096;8.802;2023-02-28T04:10:12;9.00;;;6.22;;
20880;SDS011;10600;53.096;8.802;2023-02-28T04:12:22;9.07;;;5.60;;
20880;SDS011;10600;53.096;8.802;2023-02-28T04:13:23;8.45;;;6.10;;
20880;SDS011;10600;53.096;8.802;2023-02-28T04:14:23;12.35;;;6.90;;
20880;SDS011;10600;53.096;8.802;2023-02-28T04:15:24;13.50;;;6.53;;
20880;SDS011;10600;53.096;8.802;2023-02-28T04:16:27;12.05;;;6.88;;
20880;SDS011;10600;53.096;8.802;2023-02-28T04:17:28;10.65;;;6.45;;
20880;SDS011;10600;53.096;8.802;2023-02-28T04:18:28;10.73;;;6.50;;
20880;SDS011;10600;53.096;8.802;2023-02-28T04:19:29;10.23;;;6.32;;
20880;SDS011;10600;53.096;8.802;2023-02-28T04:20:30;12.50;;;7.60;;
20880;SDS011;10600;53.096;8.802;2023-02-28T04:21:52;12.40;;;6.47;;
20880;SDS011;10600;53.096;8.802;2023-02-28T04:22:52;11.50;;;6.63;;
20880;SDS011;10600;53.096;8.802;2023-02-28T04:23:53;14.23;;;6.65;;
20880;SDS011;10600;53.096;8.802;2023-02-28T04:24:54;10.93;;;6.60;;
20880;SDS011;10600;53.096;8.802;2023-02-28T04:25:55;12.95;;;7.57;;
20880;SDS011;10600;53.096;8.802;2023-02-28T04:26:56;12.15;;;6.88;;
20880;SDS011;10600;53.096;8.802;2023-02-28T04:27:58;13.10;;;7.20;;
20880;SDS011;10600;53.096;8.802;2023-02-28T04:28:59;11.07;;;7.35;;
20880;SDS011;10600;53.096;8.802;2023-02-28T04:30:00;11.73;;;6.25;;
20880;SDS011;10600;53.096;8.802;2023-02-28T04:31:02;17.30;;;8.57;;
20880;SDS011;10600;53.096;8.802;2023-02-28T04:32:03;12.40;;;6.80;;
20880;SDS011;10600;53.096;8.802;2023-02-28T04:33:04;10.75;;;6.63;;
20880;SDS011;10600;53.096;8.802;2023-02-28T04:34:05;12.65;;;6.60;;
20880;SDS011;10600;53.096;8.802;2023-02-28T04:35:06;11.73;;;6.47;;
20880;SDS011;10600;53.096;8.802;2023-02-28T04:36:08;10.45;;;6.45;;
20880;SDS011;10600;53.096;8.802;2023-02-28T04:37:08;12.32;;;7.43;;
20880;SDS011;10600;53.096;8.802;2023-02-28T04:38:09;16.38;;;8.00;;
20880;SDS011;10600;53.096;8.802;2023-02-28T04:39:10;21.52;;;8.55;;
20880;SDS011;10600;53.096;8.802;2023-02-28T04:40:10;27.30;;;10.68;;
20880;SDS011;10600;53.096;8.802;2023-02-28T04:41:12;20.55;;;9.57;;
20880;SDS011;10600;53.096;8.802;2023-02-28T04:42:13;22.27;;;10.68;;
20880;SDS011;10600;53.096;8.802;2023-02-28T04:43:14;15.73;;;7.43;;
20880;SDS011;10600;53.096;8.802;2023-02-28T04:44:15;17.35;;;8.55;;
20880;SDS011;10600;53.096;8.802;2023-02-28T04:45:16;13.20;;;6.75;;
20880;SDS011;10600;53.096;8.802;2023-02-28T04:46:17;14.63;;;8.40;;
20880;SDS011;10600;53.096;8.802;2023-02-28T04:47:18;10.35;;;6.95;;
20880;SDS011;10600;53.096;8.802;2023-02-28T04:48:18;12.35;;;7.10;;
20880;SDS011;10600;53.096;8.802;2023-02-28T04:49:19;12.93;;;8.02;;
20880;SDS011;10600;53.096;8.802;2023-02-28T04:50:20;18.10;;;8.57;;
20880;SDS011;10600;53.096;8.802;2023-02-28T04:51:20;16.40;;;9.35;;
20880;SDS011;10600;53.096;8.802;2023-02-28T04:52:21;15.65;;;7.68;;
20880;SDS011;10600;53.096;8.802;2023-02-28T04:53:22;14.55;;;7.63;;
20880;SDS011;10600;53.096;8.802;2023-02-28T04:54:23;12.90;;;7.00;;
20880;SDS011;10600;53.096;8.802;2023-02-28T04:55:24;11.63;;;7.13;;
20880;SDS011;10600;53.096;8.802;2023-02-28T04:56:24;10.65;;;6.70;;
20880;SDS011;10600;53.096;8.802;2023-02-28T04:57:25;12.18;;;6.30;;
20880;SDS011;10600;53.096;8.802;2023-02-28T04:58:26;11.38;;;6.03;;
20880;SDS011;10600;53.096;8.802;2023-02-28T04:59:26;9.38;;;6.38;;
20880;SDS011;10600;53.096;8.802;2023-02-28T05:00:27;10.00;;;6.68;;
20880;SDS011;10600;53.096;8.802;2023-02-28T05:01:32;9.60;;;6.15;;
20880;SDS011;10600;53.096;8.802;2023-02-28T05:02:34;12.90;;;6.97;;
20880;SDS011;10600;53.096;8.802;2023-02-28T05:03:35;11.35;;;6.20;;
20880;SDS011;10600;53.096;8.802;2023-02-28T05:04:36;13.00;;;6.20;;
20880;SDS011;10600;53.096;8.802;2023-02-28T05:05:37;11.15;;;6.60;;
20880;SDS011;10600;53.096;8.802;2023-02-28T05:06:37;10.77;;;6.30;;
20880;SDS011;10600;53.096;8.802;2023-02-28T05:07:38;7.80;;;5.60;;
20880;SDS011;10600;53.096;8.802;2023-02-28T05:08:38;11.23;;;6.85;;
20880;SDS011;10600;53.096;8.802;2023-02-28T05:09:40;8.82;;;6.05;;
20880;SDS011;10600;53.096;8.802;2023-02-28T05:10:40;9.50;;;6.63;;
20880;SDS011;10600;53.096;8.802;2023-02-28T05:11:41;9.75;;;5.43;;
20880;SDS011;10600;53.096;8.802;2023-02-28T05:12:41;10.07;;;5.90;;
20880;SDS011;10600;53.096;8.802;2023-02-28T05:13:42;10.43;;;6.03;;
20880;SDS011;10600;53.096;8.802;2023-02-28T05:14:43;10.27;;;6.43;;
20880;SDS011;10600;53.096;8.802;2023-02-28T05:15:44;10.35;;;6.03;;
20880;SDS011;10600;53.096;8.802;2023-02-28T05:16:44;11.00;;;6.30;;
20880;SDS011;10600;53.096;8.802;2023-02-28T05:17:45;10.38;;;6.38;;
20880;SDS011;10600;53.096;8.802;2023-02-28T05:18:45;12.80;;;6.50;;
20880;SDS011;10600;53.096;8.802;2023-02-28T05:19:46;8.75;;;5.53;;
20880;SDS011;10600;53.096;8.802;2023-02-28T05:20:47;10.27;;;5.65;;
20880;SDS011;10600;53.096;8.802;2023-02-28T05:21:49;9.30;;;5.57;;
20880;SDS011;10600;53.096;8.802;2023-02-28T05:22:52;7.75;;;5.70;;
20880;SDS011;10600;53.096;8.802;2023-02-28T05:23:53;9.20;;;5.55;;
20880;SDS011;10600;53.096;8.802;2023-02-28T05:24:54;14.20;;;6.15;;
20880;SDS011;10600;53.096;8.802;2023-02-28T05:25:55;12.45;;;5.90;;
20880;SDS011;10600;53.096;8.802;2023-02-28T05:26:56;9.93;;;5.35;;
20880;SDS011;10600;53.096;8.802;2023-02-28T05:27:56;8.30;;;5.85;;
20880;SDS011;10600;53.096;8.802;2023-02-28T05:28:57;8.40;;;5.30;;
20880;SDS011;10600;53.096;8.802;2023-02-28T05:29:58;7.72;;;5.72;;
20880;SDS011;10600;53.096;8.802;2023-02-28T05:30:59;11.63;;;6.10;;
20880;SDS011;10600;53.096;8.802;2023-02-28T05:31:59;11.82;;;6.38;;
20880;SDS011;10600;53.096;8.802;2023-02-28T05:33:00;9.93;;;5.35;;
20880;SDS011;10600;53.096;8.802;2023-02-28T05:34:01;9.57;;;5.65;;
20880;SDS011;10600;53.096;8.802;2023-02-28T05:35:04;8.77;;;6.18;;
20880;SDS011;10600;53.096;8.802;2023-02-28T05:36:05;9.63;;;5.53;;
20880;SDS011;10600;53.096;8.802;2023-02-28T05:37:07;13.63;;;6.15;;
20880;SDS011;10600;53.096;8.802;2023-02-28T05:38:12;9.93;;;6.07;;
20880;SDS011;10600;53.096;8.802;2023-02-28T05:39:12;10.00;;;5.97;;
20880;SDS011;10600;53.096;8.802;2023-02-28T05:40:13;8.30;;;5.38;;
20880;SDS011;10600;53.096;8.802;2023-02-28T05:41:15;10.07;;;5.78;;
20880;SDS011;10600;53.096;8.802;2023-02-28T05:42:16;9.70;;;5.97;;
20880;SDS011;10600;53.096;8.802;2023-02-28T05:43:17;8.10;;;5.97;;
20880;SDS011;10600;53.096;8.802;2023-02-28T05:44:18;9.10;;;5.68;;
20880;SDS011;10600;53.096;8.802;2023-02-28T05:45:18;10.30;;;5.72;;
20880;SDS011;10600;53.096;8.802;2023-02-28T05:46:19;12.70;;;6.28;;
20880;SDS011;10600;53.096;8.802;2023-02-28T05:47:19;11.77;;;5.95;;
20880;SDS011;10600;53.096;8.802;2023-02-28T05:48:20;12.15;;;6.18;;
20880;SDS011;10600;53.096;8.802;2023-02-28T05:49:21;11.95;;;5.75;;
20880;SDS011;10600;53.096;8.802;2023-02-28T05:50:22;11.13;;;6.32;;
20880;SDS011;10600;53.096;8.802;2023-02-28T05:51:22;9.68;;;6.05;;
20880;SDS011;10600;53.096;8.802;2023-02-28T05:52:23;10.60;;;6.03;;
20880;SDS011;10600;53.096;8.802;2023-02-28T05:53:24;10.98;;;6.57;;
20880;SDS011;10600;53.096;8.802;2023-02-28T05:54:25;12.60;;;6.72;;
20880;SDS011;10600;53.096;8.802;2023-02-28T05:55:25;8.43;;;5.93;;
20880;SDS011;10600;53.096;8.802;2023-02-28T05:56:26;11.27;;;6.90;;
20880;SDS011;10600;53.096;8.802;2023-02-28T05:57:27;12.00;;;6.40;;
20880;SDS011;10600;53.096;8.802;2023-02-28T05:58:27;10.52;;;6.10;;
20880;SDS011;10600;53.096;8.802;2023-02-28T05:59:30;10.57;;;6.15;;
20880;SDS011;10600;53.096;8.802;2023-02-28T06:00:31;13.93;;;6.72;;
20880;SDS011;10600;53.096;8.802;2023-02-28T06:01:33;12.35;;;6.57;;
20880;SDS011;10600;53.096;8.802;2023-02-28T06:02:35;14.20;;;6.40;;
20880;SDS011;10600;53.096;8.802;2023-02-28T06:03:36;12.68;;;7.53;;
20880;SDS011;10600;53.096;8.802;2023-02-28T06:04:37;11.30;;;6.97;;
20880;SDS011;10600;53.096;8.802;2023-02-28T06:05:37;8.82;;;6.20;;
20880;SDS011;10600;53.096;8.802;2023-02-28T06:06:38;13.15;;;8.02;;
20880;SDS011;10600;53.096;8.802;2023-02-28T06:07:39;12.27;;;7.03;;
20880;SDS011;10600;53.096;8.802;2023-02-28T06:08:39;10.55;;;6.93;;
20880;SDS011;10600;53.096;8.802;2023-02-28T06:09:40;10.88;;;7.00;;
20880;SDS011;10600;53.096;8.802;2023-02-28T06:10:41;10.57;;;7.22;;
20880;SDS011;10600;53.096;8.802;2023-02-28T06:11:41;17.55;;;8.10;;
20880;SDS011;10600;53.096;8.802;2023-02-28T06:12:42;15.73;;;8.57;;
20880;SDS011;10600;53.096;8.802;2023-02-28T06:13:43;11.20;;;7.75;;
20880;SDS011;10600;53.096;8.802;2023-02-28T06:14:43;14.23;;;7.75;;
20880;SDS011;10600;53.096;8.802;2023-02-28T06:15:44;17.77;;;8.93;;
20880;SDS011;10600;53.096;8.802;2023-02-28T06:16:44;15.45;;;9.45;;
20880;SDS011;10600;53.096;8.802;2023-02-28T06:17:45;14.10;;;9.27;;
20880;SDS011;10600;53.096;8.802;2023-02-28T06:18:47;17.38;;;8.48;;
20880;SDS011;10600;53.096;8.802;2023-02-28T06:19:47;15.93;;;8.77;;
20880;SDS011;10600;53.096;8.802;2023-02-28T06:20:54;13.98;;;8.40;;
20880;SDS011;10600;53.096;8.802;2023-02-28T06:21:55;12.82;;;7.70;;
20880;SDS011;10600;53.096;8.802;2023-02-28T06:22:57;16.75;;;7.60;;
20880;SDS011;10600;53.096;8.802;2023-02-28T06:24:00;13.25;;;7.38;;
20880;SDS011;10600;53.096;8.802;2023-02-28T06:25:03;10.15;;;6.88;;
20880;SDS011;10600;53.096;8.802;2023-02-28T06:26:04;7.20;;;6.32;;
20880;SDS011;10600;53.096;8.802;2023-02-28T06:27:05;10.77;;;6.20;;
20880;SDS011;10600;53.096;8.802;2023-02-28T06:28:06;8.82;;;6.45;;
20880;SDS011;10600;53.096;8.802;2023-02-28T06:29:06;10.90;;;6.72;;
20880;SDS011;10600;53.096;8.802;2023-02-28T06:30:07;9.93;;;6.90;;
20880;SDS011;10600;53.096;8.802;2023-02-28T06:31:14;10.68;;;7.18;;
20880;SDS011;10600;53.096;8.802;2023-02-28T06:32:16;10.90;;;7.32;;
20880;SDS011;10600;53.096;8.802;2023-02-28T06:33:17;12.13;;;6.93;;
20880;SDS011;10600;53.096;8.802;2023-02-28T06:34:17;10.10;;;7.32;;
20880;SDS011;10600;53.096;8.802;2023-02-28T06:35:18;15.10;;;7.10;;
20880;SDS011;10600;53.096;8.802;2023-02-28T06:36:19;12.52;;;8.00;;
20880;SDS011;10600;53.096;8.802;2023-02-28T06:37:19;12.73;;;7.72;;
20880;SDS011;10600;53.096;8.802;2023-02-28T06:38:20;12.98;;;7.78;;
20880;SDS011;10600;53.096;8.802;2023-02-28T06:39:21;12.68;;;7.90;;
20880;SDS011;10600;53.096;8.802;2023-02-28T06:40:21;11.40;;;7.72;;
20880;SDS011;10600;53.096;8.802;2023-02-28T06:41:23;13.77;;;8.25;;
20880;SDS011;10600;53.096;8.802;2023-02-28T06:42:25;12.77;;;7.65;;
20880;SDS011;10600;53.096;8.802;2023-02-28T06:43:29;13.02;;;8.15;;
20880;SDS011;10600;53.096;8.802;2023-02-28T06:44:32;13.70;;;8.50;;
20880;SDS011;10600;53.096;8.802;2023-02-28T06:45:34;13.07;;;8.00;;
20880;SDS011;10600;53.096;8.802;2023-02-28T06:46:35;14.48;;;8.50;;
20880;SDS011;10600;53.096;8.802;2023-02-28T06:47:37;12.68;;;8.25;;
20880;SDS011;10600;53.096;8.802;2023-02-28T06:48:39;15.85;;;8.27;;
20880;SDS011;10600;53.096;8.802;2023-02-28T06:49:40;15.50;;;9.00;;
20880;SDS011;10600;53.096;8.802;2023-02-28T06:50:40;16.33;;;8.50;;